createdAt,value
2018-02-05T00:01:26.959Z,1.00
2018-02-05T00:03:54.426Z,1.00
2018-02-05T00:06:21.844Z,1.10
2018-02-05T00:08:50.063Z,1.10
2018-02-05T00:11:17.517Z,1.10
2018-02-05T00:13:44.971Z,1.10
2018-02-05T00:16:12.416Z,1.10
2018-02-05T00:18:39.878Z,1.20
2018-02-05T00:21:07.323Z,1.20
2018-02-05T00:23:34.790Z,1.20
2018-02-05T00:26:02.280Z,1.20
2018-02-05T00:28:29.707Z,1.30
2018-02-05T00:30:57.151Z,1.30
2018-02-05T00:33:24.649Z,1.30
2018-02-05T00:35:52.096Z,1.30
2018-02-05T00:38:19.547Z,0.90
2018-02-05T00:40:47.003Z,0.50
2018-02-05T00:43:14.461Z,0.30
2018-02-05T00:45:41.903Z,0.00
2018-02-05T00:48:09.360Z,0.10
2018-02-05T00:50:36.823Z,0.40
2018-02-05T00:53:04.248Z,0.30
2018-02-05T00:55:31.700Z,0.20
2018-02-05T00:57:59.153Z,0.10
2018-02-05T01:00:26.580Z,0.20
2018-02-05T01:02:54.012Z,0.10
2018-02-05T01:05:21.481Z,0.20
2018-02-05T01:07:48.932Z,0.30
2018-02-05T01:10:16.385Z,0.20
2018-02-05T01:12:43.835Z,0.20
2018-02-05T01:15:11.279Z,0.30
2018-02-05T01:17:38.950Z,0.30
2018-02-05T01:20:06.395Z,0.20
2018-02-05T01:22:33.839Z,0.20
2018-02-05T01:25:01.294Z,0.30
2018-02-05T01:27:28.746Z,0.30
2018-02-05T01:29:56.184Z,0.30
2018-02-05T01:32:23.633Z,0.30
2018-02-05T01:34:51.083Z,0.30
2018-02-05T01:37:18.518Z,0.30
2018-02-05T01:39:45.976Z,0.40
2018-02-05T01:42:13.434Z,0.40
2018-02-05T01:44:40.873Z,0.50
2018-02-05T01:47:08.331Z,0.40
2018-02-05T01:49:35.770Z,0.40
2018-02-05T01:52:03.228Z,0.60
2018-02-05T01:54:30.671Z,0.60
2018-02-05T01:56:58.878Z,1.00
2018-02-05T01:59:26.323Z,0.90
2018-02-05T02:01:53.768Z,1.20
2018-02-05T02:04:21.226Z,1.00
2018-02-05T02:06:48.655Z,0.90
2018-02-05T02:09:16.111Z,0.70
2018-02-05T02:11:43.551Z,0.60
2018-02-05T02:14:11.001Z,0.50
2018-02-05T02:16:38.452Z,0.60
2018-02-05T02:19:05.895Z,0.60
2018-02-05T02:21:33.350Z,0.80
2018-02-05T02:24:00.809Z,0.90
2018-02-05T02:26:28.287Z,1.00
2018-02-05T02:28:55.743Z,1.10
2018-02-05T02:31:23.196Z,1.10
2018-02-05T02:33:50.636Z,0.80
2018-02-05T02:36:18.082Z,0.80
2018-02-05T02:38:45.543Z,0.90
2018-02-05T02:41:13.031Z,0.80
2018-02-05T02:43:40.462Z,1.00
2018-02-05T02:46:07.915Z,1.10
2018-02-05T02:48:35.372Z,1.30
2018-02-05T02:51:02.835Z,1.40
2018-02-05T02:53:30.493Z,1.50
2018-02-05T02:55:57.953Z,1.30
2018-02-05T02:58:25.379Z,1.30
2018-02-05T03:00:53.580Z,1.50
2018-02-05T03:03:21.037Z,1.40
2018-02-05T03:05:48.479Z,1.60
2018-02-05T03:08:15.953Z,1.70
2018-02-05T03:10:43.381Z,1.80
2018-02-05T03:13:10.821Z,1.80
2018-02-05T03:15:38.312Z,1.80
2018-02-05T03:18:05.755Z,1.80
2018-02-05T03:20:33.206Z,1.90
2018-02-05T03:23:00.665Z,1.90
2018-02-05T03:25:28.122Z,1.90
2018-02-05T03:27:55.593Z,1.90
2018-02-05T03:30:23.048Z,1.90
2018-02-05T03:32:52.163Z,1.70
2018-02-05T03:35:19.611Z,1.60
2018-02-05T03:37:47.286Z,1.70
2018-02-05T03:40:14.728Z,1.60
2018-02-05T03:42:42.171Z,1.70
2018-02-05T03:45:09.627Z,1.70
2018-02-05T03:47:37.081Z,1.60
2018-02-05T03:50:04.543Z,1.60
2018-02-05T03:52:31.997Z,1.70
2018-02-05T03:54:59.463Z,1.70
2018-02-05T03:57:27.675Z,1.80
2018-02-05T03:59:55.291Z,1.70
2018-02-05T04:02:22.745Z,1.80
2018-02-05T04:04:50.225Z,1.80
2018-02-05T04:07:17.679Z,1.80
2018-02-05T04:09:45.136Z,1.90
2018-02-05T04:12:12.573Z,1.90
2018-02-05T04:14:40.033Z,1.90
2018-02-05T04:17:07.475Z,1.90
2018-02-05T04:19:34.945Z,1.90
2018-02-05T04:22:02.400Z,2.00
2018-02-05T04:24:29.857Z,1.90
2018-02-05T04:26:57.303Z,1.90
2018-02-05T04:29:24.758Z,1.90
2018-02-05T04:31:52.230Z,1.90
2018-02-05T04:34:20.441Z,1.90
2018-02-05T04:36:47.900Z,1.80
2018-02-05T04:39:15.330Z,1.70
2018-02-05T04:41:43.538Z,1.60
2018-02-05T04:44:10.982Z,1.50
2018-02-05T04:46:38.443Z,1.40
2018-02-05T04:49:05.880Z,1.20
2018-02-05T04:51:34.096Z,1.10
2018-02-05T04:54:01.531Z,1.10
2018-02-05T04:56:28.974Z,1.20
2018-02-05T04:58:56.418Z,1.30
2018-02-05T05:01:23.867Z,1.40
2018-02-05T05:03:51.346Z,1.40
2018-02-05T05:06:18.809Z,1.30
2018-02-05T05:08:46.263Z,1.10
2018-02-05T05:11:13.719Z,1.00
2018-02-05T05:13:41.173Z,1.00
2018-02-05T05:16:08.615Z,1.10
2018-02-05T05:18:36.822Z,1.00
2018-02-05T05:21:04.268Z,0.90
2018-02-05T05:23:31.962Z,1.00
2018-02-05T05:25:59.420Z,1.00
2018-02-05T05:28:27.655Z,1.10
2018-02-05T05:30:55.851Z,1.10
2018-02-05T05:33:23.321Z,1.00
2018-02-05T05:35:50.763Z,1.30
2018-02-05T05:45:01.464Z,1.10
2018-02-05T05:47:29.029Z,0.90
2018-02-05T05:49:56.483Z,0.90
2018-02-05T05:52:23.909Z,1.00
2018-02-05T05:54:51.379Z,1.10
2018-02-05T05:57:18.835Z,0.90
2018-02-05T05:59:46.289Z,0.80
2018-02-05T06:02:13.744Z,0.70
2018-02-05T06:04:41.203Z,0.60
2018-02-05T06:07:08.653Z,0.60
2018-02-05T06:09:36.137Z,0.70
2018-02-05T06:12:03.573Z,0.60
2018-02-05T06:14:31.799Z,0.60
2018-02-05T06:16:59.278Z,0.50
2018-02-05T06:19:26.744Z,0.40
2018-02-05T06:21:54.967Z,0.50
2018-02-05T06:24:22.414Z,0.50
2018-02-05T06:26:49.860Z,0.50
2018-02-05T06:29:17.309Z,0.30
2018-02-05T06:31:44.784Z,0.20
2018-02-05T06:34:12.238Z,0.30
2018-02-05T06:36:39.683Z,0.40
2018-02-05T06:39:07.907Z,0.30
2018-02-05T06:41:35.357Z,0.20
2018-02-05T06:44:02.798Z,0.30
2018-02-05T06:46:30.241Z,0.30
2018-02-05T06:48:57.699Z,0.40
2018-02-05T06:51:36.844Z,0.20
2018-02-05T06:54:16.025Z,0.30
2018-02-05T06:56:43.459Z,0.30
2018-02-05T06:59:10.911Z,0.30
2018-02-05T07:01:38.349Z,0.20
2018-02-05T07:04:05.787Z,0.10
2018-02-05T07:06:33.236Z,0.10
2018-02-05T07:09:00.680Z,0.20
2018-02-05T07:11:28.396Z,0.20
2018-02-05T07:13:55.857Z,0.30
2018-02-05T07:16:23.315Z,0.50
2018-02-05T07:18:50.775Z,0.50
2018-02-05T07:21:18.227Z,0.50
2018-02-05T07:23:45.651Z,0.40
2018-02-05T07:26:13.128Z,0.60
2018-02-05T07:28:40.578Z,0.70
2018-02-05T07:31:08.032Z,0.60
2018-02-05T07:33:35.508Z,0.60
2018-02-05T07:36:02.923Z,0.60
2018-02-05T07:38:31.368Z,0.60
2018-02-05T07:40:58.865Z,0.50
2018-02-05T07:43:26.321Z,0.70
2018-02-05T07:45:53.751Z,0.70
2018-02-05T07:48:21.219Z,0.70
2018-02-05T07:50:48.647Z,1.00
2018-02-05T07:53:16.108Z,1.30
2018-02-05T07:55:43.763Z,1.40
2018-02-05T07:58:17.043Z,1.60
2018-02-05T08:00:44.591Z,1.70
2018-02-05T08:03:12.041Z,1.90
2018-02-05T08:05:39.477Z,1.90
2018-02-05T08:08:06.938Z,2.00
2018-02-05T08:10:34.391Z,2.00
2018-02-05T08:13:02.620Z,1.70
2018-02-05T08:15:30.138Z,1.60
2018-02-05T08:17:58.365Z,1.90
2018-02-05T08:20:25.821Z,1.80
2018-02-05T08:22:53.307Z,1.80
2018-02-05T08:25:20.759Z,2.00
2018-02-05T08:27:48.233Z,2.20
2018-02-05T08:30:15.672Z,2.00
2018-02-05T08:32:43.144Z,1.70
2018-02-05T08:35:10.583Z,1.80
2018-02-05T08:37:38.058Z,1.90
2018-02-05T08:40:05.509Z,1.90
2018-02-05T08:42:32.967Z,2.00
2018-02-05T08:45:00.396Z,1.60
2018-02-05T08:47:27.882Z,1.60
2018-02-05T08:49:55.305Z,1.40
2018-02-05T08:52:22.751Z,1.50
2018-02-05T08:54:50.218Z,1.70
2018-02-05T08:57:18.433Z,1.90
2018-02-05T08:59:46.652Z,1.80
2018-02-05T09:02:14.099Z,1.80
2018-02-05T09:04:41.539Z,1.90
2018-02-05T09:07:08.990Z,2.30
2018-02-05T09:09:36.461Z,2.70
2018-02-05T09:12:03.899Z,2.90
2018-02-05T09:14:31.337Z,3.00
2018-02-05T09:16:58.779Z,2.80
2018-02-05T09:19:26.240Z,2.90
2018-02-05T09:21:53.675Z,3.10
2018-02-05T09:24:21.143Z,3.10
2018-02-05T09:26:49.267Z,2.80
2018-02-05T09:29:16.719Z,2.70
2018-02-05T09:31:44.169Z,2.80
2018-02-05T09:34:12.367Z,3.10
2018-02-05T09:36:39.803Z,3.10
2018-02-05T09:39:08.004Z,3.30
2018-02-05T09:41:35.491Z,3.30
2018-02-05T09:44:03.299Z,3.10
2018-02-05T09:46:30.683Z,2.80
2018-02-05T09:48:58.126Z,2.90
2018-02-05T09:51:25.593Z,3.10
2018-02-05T09:53:53.068Z,3.40
2018-02-05T09:56:20.498Z,3.70
2018-02-05T09:58:47.956Z,3.40
2018-02-05T10:01:15.423Z,3.70
2018-02-05T10:03:42.895Z,3.90
2018-02-05T10:06:10.362Z,3.80
2018-02-05T10:08:37.900Z,3.80
2018-02-05T10:11:05.334Z,3.40
2018-02-05T10:13:32.899Z,3.50
2018-02-05T10:16:00.342Z,3.50
2018-02-05T10:18:27.788Z,3.50
2018-02-05T10:20:55.227Z,3.50
2018-02-05T10:23:22.724Z,3.60
2018-02-05T10:25:50.932Z,3.50
2018-02-05T10:28:18.392Z,3.40
2018-02-05T10:30:45.845Z,3.40
2018-02-05T10:33:16.178Z,3.00
2018-02-05T10:35:43.623Z,2.80
2018-02-05T10:38:11.083Z,2.80
2018-02-05T10:40:38.504Z,2.70
2018-02-05T10:43:05.960Z,3.10
2018-02-05T10:45:34.311Z,3.50
2018-02-05T10:48:01.768Z,3.50
2018-02-05T10:50:29.208Z,3.50
2018-02-05T10:52:56.658Z,3.80
2018-02-05T10:55:24.188Z,4.50
2018-02-05T10:57:51.624Z,5.00
2018-02-05T11:00:19.837Z,5.40
2018-02-05T11:02:47.291Z,5.30
2018-02-05T11:05:14.855Z,5.60
2018-02-05T11:07:42.313Z,5.40
2018-02-05T11:10:09.757Z,5.80
2018-02-05T11:12:37.183Z,6.00
2018-02-05T11:15:06.838Z,5.90
2018-02-05T11:17:34.374Z,5.80
2018-02-05T11:20:01.809Z,5.30
2018-02-05T11:22:30.098Z,5.40
2018-02-05T11:24:58.300Z,5.40
2018-02-05T11:27:25.757Z,5.40
2018-02-05T11:29:53.221Z,6.20
2018-02-05T11:32:20.682Z,6.90
2018-02-05T11:34:48.175Z,7.20
2018-02-05T11:37:15.648Z,6.90
2018-02-05T11:39:43.939Z,4.90
2018-02-05T11:42:11.383Z,4.90
2018-02-05T11:44:38.995Z,4.90
2018-02-05T11:47:06.436Z,4.70
2018-02-05T11:49:33.893Z,4.60
2018-02-05T11:52:01.362Z,4.30
2018-02-05T11:54:28.796Z,4.70
2018-02-05T11:56:56.247Z,4.80
2018-02-05T11:59:23.734Z,4.80
2018-02-05T12:01:51.198Z,4.90
2018-02-05T12:04:18.647Z,4.20
2018-02-05T12:06:47.052Z,4.00
2018-02-05T12:09:14.499Z,4.20
2018-02-05T12:11:41.954Z,4.10
2018-02-05T12:14:09.404Z,3.90
2018-02-05T12:16:36.844Z,3.50
2018-02-05T12:19:04.279Z,3.30
2018-02-05T12:21:31.760Z,3.40
2018-02-05T12:23:59.393Z,3.40
2018-02-05T12:26:26.844Z,2.90
2018-02-05T12:28:55.359Z,3.10
2018-02-05T12:31:22.815Z,3.20
2018-02-05T12:33:50.271Z,3.40
2018-02-05T12:36:17.733Z,4.30
2018-02-05T12:38:45.181Z,5.50
2018-02-05T12:41:12.621Z,6.90
2018-02-05T12:43:40.103Z,8.40
2018-02-05T12:46:07.559Z,8.90
2018-02-05T12:48:34.999Z,8.40
2018-02-05T12:51:02.451Z,8.60
2018-02-05T12:53:29.875Z,9.10
2018-02-05T12:55:57.313Z,9.50
2018-02-05T12:58:28.351Z,9.70
2018-02-05T13:01:01.521Z,10.10
2018-02-05T13:03:32.416Z,10.20
2018-02-05T13:06:03.306Z,10.80
2018-02-05T13:08:30.723Z,10.70
2018-02-05T13:10:59.128Z,8.60
2018-02-05T13:13:26.547Z,8.50
2018-02-05T13:15:54.762Z,7.00
2018-02-05T13:18:22.204Z,6.90
2018-02-05T13:20:49.681Z,7.00
2018-02-05T13:23:17.139Z,6.40
2018-02-05T13:25:44.594Z,6.00
2018-02-05T13:28:12.919Z,5.20
2018-02-05T13:30:41.148Z,5.20
2018-02-05T13:33:08.597Z,5.10
2018-02-05T13:35:36.057Z,5.40
2018-02-05T13:38:03.499Z,6.20
2018-02-05T13:40:30.978Z,6.10
2018-02-05T13:42:58.471Z,5.90
2018-02-05T13:45:31.015Z,5.70
2018-02-05T13:48:02.295Z,5.90
2018-02-05T13:50:29.967Z,6.40
2018-02-05T13:52:57.437Z,6.50
2018-02-05T13:55:24.867Z,5.70
2018-02-05T13:57:52.316Z,5.20
2018-02-05T14:00:20.055Z,5.10
2018-02-05T14:02:48.280Z,4.50
2018-02-05T14:05:16.525Z,4.20
2018-02-05T14:07:43.973Z,4.10
2018-02-05T14:10:11.498Z,4.30
2018-02-05T14:12:39.858Z,4.20
2018-02-05T14:15:08.077Z,3.90
2018-02-05T14:17:35.523Z,3.80
2018-02-05T14:20:02.981Z,3.70
2018-02-05T14:22:30.440Z,3.80
2018-02-05T14:24:57.911Z,3.90
2018-02-05T14:27:25.375Z,4.00
2018-02-05T14:29:52.811Z,4.10
2018-02-05T14:32:20.308Z,4.00
2018-02-05T14:34:47.809Z,4.20
2018-02-05T14:37:15.288Z,4.10
2018-02-05T14:39:42.744Z,3.80
2018-02-05T14:42:10.180Z,3.50
2018-02-05T14:44:37.636Z,3.40
2018-02-05T14:47:05.094Z,3.20
2018-02-05T14:49:32.523Z,3.20
2018-02-05T14:51:59.971Z,3.30
2018-02-05T14:54:27.415Z,3.20
2018-02-05T14:56:54.876Z,3.10
2018-02-05T14:59:22.344Z,3.50
2018-02-05T15:01:49.786Z,3.50
2018-02-05T15:04:17.264Z,3.70
2018-02-05T15:06:47.151Z,3.60
2018-02-05T15:09:14.597Z,3.50
2018-02-05T15:11:42.051Z,3.50
2018-02-05T15:14:09.500Z,3.50
2018-02-05T15:16:37.006Z,3.50
2018-02-05T15:19:04.462Z,3.60
2018-02-05T15:21:31.918Z,3.50
2018-02-05T15:23:59.363Z,3.40
2018-02-05T15:26:26.859Z,3.30
2018-02-05T15:28:54.368Z,3.10
2018-02-05T15:31:21.827Z,3.10
2018-02-05T15:33:49.291Z,2.90
2018-02-05T15:36:16.739Z,2.80
2018-02-05T15:38:44.234Z,2.60
2018-02-05T15:41:11.671Z,2.60
2018-02-05T15:43:39.108Z,2.60
2018-02-05T15:46:06.556Z,2.70
2018-02-05T15:48:34.008Z,2.80
2018-02-05T15:51:01.475Z,2.70
2018-02-05T15:53:28.925Z,2.60
2018-02-05T15:55:56.431Z,2.60
2018-02-05T15:58:23.867Z,2.60
2018-02-05T16:00:51.384Z,2.50
2018-02-05T16:03:19.003Z,2.40
2018-02-05T16:05:46.701Z,2.20
2018-02-05T16:08:14.166Z,2.30
2018-02-05T16:10:41.602Z,2.20
2018-02-05T16:13:09.052Z,2.10
2018-02-05T16:15:36.540Z,2.20
2018-02-05T16:18:03.992Z,2.30
2018-02-05T16:20:31.469Z,2.20
2018-02-05T16:22:58.937Z,2.10
2018-02-05T16:25:26.433Z,2.10
2018-02-05T16:27:53.909Z,2.00
2018-02-05T16:30:21.360Z,1.90
2018-02-05T16:32:48.807Z,1.70
2018-02-05T16:35:16.302Z,1.70
2018-02-05T16:37:43.792Z,1.70
2018-02-05T16:40:11.223Z,1.70
2018-02-05T16:42:38.696Z,1.70
2018-02-05T16:45:06.138Z,1.70
2018-02-05T16:47:33.631Z,1.70
2018-02-05T16:50:01.073Z,1.60
2018-02-05T16:52:28.571Z,1.60
2018-02-05T16:54:56.014Z,1.50
2018-02-05T16:57:23.471Z,1.50
2018-02-05T16:59:50.949Z,1.40
2018-02-05T17:02:18.377Z,1.40
2018-02-05T17:04:45.891Z,1.40
2018-02-05T17:07:13.290Z,1.30
2018-02-05T17:09:40.806Z,1.30
2018-02-05T17:12:08.264Z,1.30
2018-02-05T17:14:35.737Z,1.30
2018-02-05T17:17:03.193Z,1.20
2018-02-05T17:19:30.631Z,1.20
2018-02-05T17:21:58.087Z,1.10
2018-02-05T17:24:25.542Z,1.10
2018-02-05T17:26:53.008Z,1.10
2018-02-05T17:29:20.453Z,1.10
2018-02-05T17:31:47.933Z,1.10
2018-02-05T17:34:15.367Z,1.20
2018-02-05T17:36:42.843Z,1.20
2018-02-05T17:39:10.309Z,1.30
2018-02-05T17:41:37.746Z,1.30
2018-02-05T17:44:05.197Z,1.40
2018-02-05T17:46:32.657Z,1.30
2018-02-05T17:49:00.134Z,1.30
2018-02-05T17:51:27.734Z,1.10
2018-02-05T17:53:55.198Z,1.20
2018-02-05T17:56:22.684Z,1.20
2018-02-05T17:58:50.144Z,1.10
2018-02-05T18:01:17.600Z,1.00
2018-02-05T18:03:45.070Z,0.90
2018-02-05T18:06:12.531Z,0.90
2018-02-05T18:08:40.019Z,0.90
2018-02-05T18:11:07.468Z,1.00
2018-02-05T18:13:34.983Z,1.10
2018-02-05T18:16:02.455Z,1.10
2018-02-05T18:18:29.901Z,1.10
2018-02-05T18:20:57.464Z,1.20
2018-02-05T18:23:24.907Z,1.10
2018-02-05T18:25:52.370Z,1.20
2018-02-05T18:28:19.829Z,1.20
2018-02-05T18:30:47.295Z,1.20
2018-02-05T18:33:14.743Z,1.20
2018-02-05T18:35:42.295Z,1.20
2018-02-05T18:38:09.769Z,1.20
2018-02-05T18:40:37.229Z,1.20
2018-02-05T18:43:04.673Z,1.10
2018-02-05T18:45:32.143Z,1.10
2018-02-05T18:47:59.592Z,1.10
2018-02-05T18:50:27.059Z,1.00
2018-02-05T18:52:54.528Z,0.90
2018-02-05T18:55:21.988Z,0.80
2018-02-05T18:57:49.453Z,0.80
2018-02-05T19:00:28.573Z,0.80
2018-02-05T19:02:56.028Z,0.80
2018-02-05T19:05:23.483Z,0.80
2018-02-05T19:07:50.939Z,0.80
2018-02-05T19:10:18.392Z,0.70
2018-02-05T19:12:46.042Z,0.80
2018-02-05T19:15:13.496Z,0.90
2018-02-05T19:17:40.959Z,0.90
2018-02-05T19:20:08.469Z,1.00
2018-02-05T19:22:35.912Z,0.90
2018-02-05T19:25:03.379Z,1.00
2018-02-05T19:27:30.827Z,0.90
2018-02-05T19:29:58.264Z,1.00
2018-02-05T19:32:26.001Z,0.90
2018-02-05T19:34:53.452Z,1.00
2018-02-05T19:37:20.920Z,1.00
2018-02-05T19:39:48.379Z,1.10
2018-02-05T19:42:16.812Z,1.10
2018-02-05T19:44:44.251Z,1.00
2018-02-05T19:47:11.678Z,0.90
2018-02-05T19:49:39.134Z,0.90
2018-02-05T19:52:06.588Z,1.00
2018-02-05T19:54:34.042Z,0.90
2018-02-05T19:57:01.471Z,0.70
2018-02-05T19:59:28.916Z,0.70
2018-02-05T20:01:56.360Z,0.50
2018-02-05T20:04:24.026Z,0.40
2018-02-05T20:06:51.456Z,0.50
2018-02-05T20:09:18.927Z,0.50
2018-02-05T20:11:46.380Z,0.50
2018-02-05T20:14:13.840Z,0.40
2018-02-05T20:16:41.273Z,0.50
2018-02-05T20:19:08.789Z,0.50
2018-02-05T20:21:36.228Z,0.40
2018-02-05T20:24:03.696Z,0.40
2018-02-05T20:26:31.136Z,0.50
2018-02-05T20:28:58.605Z,0.50
2018-02-05T20:31:26.048Z,0.60
2018-02-05T20:33:53.487Z,0.70
2018-02-05T20:36:20.945Z,0.70
2018-02-05T20:38:48.401Z,0.80
2018-02-05T20:41:15.852Z,0.80
2018-02-05T20:43:43.316Z,0.80
2018-02-05T20:46:10.751Z,0.60
2018-02-05T20:48:38.203Z,0.50
2018-02-05T20:51:05.658Z,0.40
2018-02-05T20:53:33.121Z,0.40
2018-02-05T20:56:00.612Z,0.30
2018-02-05T20:58:28.065Z,0.30
2018-02-05T21:00:55.507Z,0.20
2018-02-05T21:03:22.963Z,0.30
2018-02-05T21:05:50.402Z,0.30
2018-02-05T21:08:17.872Z,0.50
2018-02-05T21:10:45.323Z,0.40
2018-02-05T21:13:12.783Z,0.40
2018-02-05T21:15:40.240Z,0.40
2018-02-05T21:18:07.695Z,0.40
2018-02-05T21:20:35.160Z,0.40
2018-02-05T21:23:02.687Z,0.30
2018-02-05T21:25:30.162Z,0.30
2018-02-05T21:27:57.600Z,0.40
2018-02-05T21:30:25.270Z,0.50
2018-02-05T21:32:52.724Z,0.50
2018-02-05T21:35:20.190Z,0.40
2018-02-05T21:37:47.636Z,0.50
2018-02-05T21:40:15.061Z,0.60
2018-02-05T21:42:42.527Z,0.50
2018-02-05T21:45:09.972Z,0.50
2018-02-05T21:47:37.423Z,0.70
2018-02-05T21:50:04.870Z,0.90
2018-02-05T21:52:32.381Z,0.80
2018-02-05T21:54:59.827Z,0.90
2018-02-05T21:57:27.298Z,1.10
2018-02-05T21:59:54.741Z,1.20
2018-02-05T22:02:22.179Z,1.30
2018-02-05T22:04:49.687Z,1.30
2018-02-05T22:07:17.888Z,1.30
2018-02-05T22:09:45.339Z,1.30
2018-02-05T22:12:12.788Z,1.40
2018-02-05T22:14:40.383Z,1.50
2018-02-05T22:17:07.835Z,1.60
2018-02-05T22:19:35.320Z,1.50
2018-02-05T22:22:02.785Z,1.30
2018-02-05T22:24:30.236Z,1.20
2018-02-05T22:26:57.701Z,1.00
2018-02-05T22:29:25.139Z,1.10
2018-02-05T22:31:52.596Z,1.00
2018-02-05T22:34:20.038Z,1.00
2018-02-05T22:36:48.262Z,0.80
2018-02-05T22:39:15.721Z,0.70
2018-02-05T22:41:43.177Z,0.80
2018-02-05T22:44:10.645Z,0.80
2018-02-05T22:46:38.092Z,0.70
2018-02-05T22:49:05.547Z,0.70
2018-02-05T22:51:33.011Z,0.80
2018-02-05T22:54:00.448Z,0.80
2018-02-05T22:56:27.904Z,0.90
2018-02-05T22:58:55.527Z,1.00
2018-02-05T23:01:23.756Z,0.90
2018-02-05T23:03:51.193Z,0.90
2018-02-05T23:06:18.655Z,0.80
2018-02-05T23:08:46.114Z,0.80
2018-02-05T23:11:13.591Z,0.60
2018-02-05T23:13:41.063Z,0.70
2018-02-05T23:16:08.536Z,0.90
2018-02-05T23:18:35.991Z,0.80
2018-02-05T23:21:03.435Z,0.60
2018-02-05T23:23:30.886Z,0.70
2018-02-05T23:25:58.331Z,0.80
2018-02-05T23:28:25.784Z,0.80
2018-02-05T23:30:53.262Z,0.80
2018-02-05T23:33:20.706Z,0.70
2018-02-05T23:35:48.168Z,0.50
2018-02-05T23:38:15.613Z,0.60
2018-02-05T23:40:43.076Z,0.60
2018-02-05T23:43:11.935Z,0.60
2018-02-05T23:45:39.388Z,0.50
2018-02-05T23:48:06.850Z,0.50
2018-02-05T23:50:34.292Z,0.50
2018-02-05T23:53:01.738Z,0.50
2018-02-05T23:55:29.191Z,0.60
2018-02-05T23:57:56.630Z,0.60
